THY5CL LTFM-UBBB
Flight info
| Callsign | THY5CL |
|---|---|
| Flight time | N/A |
| Altitude | 35000 |
| Route | VICEN1D/35L VICEN UT380 ASMAP UL333 LATGA UT363 GURBU UL615 ERZ UN161 INDUR DCT GOGOL DCT VETEN N449 GOTUB T447 INSAN |
| Aircraft | B738/M-SDE2E3FGHIRWXY/LB1 |
Departure
| Time | N/A |
|---|---|
| Airport | İstanbul Airport (LTFM) |
Arrival
| Time | 2026-05-01 14:51 |
|---|---|
| Airport | Heydar Aliyev International Airport (UBBB) |
| Time | Latitude | Longitude | Altitude | Speed | Heading |
|---|---|---|---|---|---|
| 2026-05-01 14:23 | 40.18642 | 48.72893 | 27896 ft | 454 kts | 91° |
| 2026-05-01 14:23 | 40.18670 | 48.76989 | 26943 ft | 450 kts | 91° |
| 2026-05-01 14:23 | 40.18675 | 48.81091 | 25951 ft | 447 kts | 92° |
| 2026-05-01 14:23 | 40.18515 | 48.85099 | 24957 ft | 443 kts | 97° |
| 2026-05-01 14:24 | 40.18102 | 48.89061 | 23942 ft | 440 kts | 101° |
| 2026-05-01 14:24 | 40.17563 | 48.92918 | 23264 ft | 429 kts | 102° |
| 2026-05-01 14:24 | 40.16994 | 48.96687 | 22678 ft | 418 kts | 102° |
| 2026-05-01 14:24 | 40.16432 | 49.00341 | 22036 ft | 409 kts | 102° |
| 2026-05-01 14:25 | 40.15874 | 49.03939 | 21372 ft | 402 kts | 102° |
| 2026-05-01 14:25 | 40.15319 | 49.07502 | 20723 ft | 395 kts | 102° |
| 2026-05-01 14:25 | 40.14777 | 49.10967 | 20057 ft | 389 kts | 102° |
| 2026-05-01 14:25 | 40.14238 | 49.14410 | 19389 ft | 384 kts | 102° |
| 2026-05-01 14:26 | 40.13712 | 49.17753 | 18751 ft | 378 kts | 102° |
| 2026-05-01 14:26 | 40.12250 | 49.27101 | 16922 ft | 365 kts | 101° |
| 2026-05-01 14:27 | 40.11883 | 49.30365 | 16277 ft | 361 kts | 96° |
| 2026-05-01 14:27 | 40.11762 | 49.33536 | 16029 ft | 345 kts | 90° |
| 2026-05-01 14:27 | 40.11855 | 49.36607 | 16021 ft | 327 kts | 87° |
| 2026-05-01 14:28 | 40.12174 | 49.42456 | 16033 ft | 329 kts | 86° |
| 2026-05-01 14:28 | 40.12348 | 49.45391 | 15999 ft | 321 kts | 86° |
| 2026-05-01 14:28 | 40.12522 | 49.48257 | 16017 ft | 306 kts | 86° |
| 2026-05-01 14:28 | 40.12684 | 49.50934 | 16012 ft | 294 kts | 85° |
| 2026-05-01 14:29 | 40.12843 | 49.53559 | 15998 ft | 290 kts | 86° |
| 2026-05-01 14:29 | 40.13040 | 49.56223 | 16021 ft | 294 kts | 80° |
| 2026-05-01 14:30 | 40.16380 | 49.62648 | 16014 ft | 294 kts | 31° |
| 2026-05-01 14:30 | 40.18138 | 49.63989 | 16011 ft | 293 kts | 26° |
| 2026-05-01 14:30 | 40.19923 | 49.65247 | 16008 ft | 292 kts | 27° |
| 2026-05-01 14:31 | 40.23499 | 49.67810 | 16012 ft | 293 kts | 28° |
| 2026-05-01 14:31 | 40.25280 | 49.69099 | 16003 ft | 293 kts | 26° |
| 2026-05-01 14:31 | 40.27127 | 49.70266 | 16007 ft | 292 kts | 20° |
| 2026-05-01 14:31 | 40.29052 | 49.71054 | 16025 ft | 290 kts | 9° |
| 2026-05-01 14:32 | 40.31034 | 49.71482 | 16009 ft | 289 kts | 6° |
| 2026-05-01 14:32 | 40.33033 | 49.71820 | 16008 ft | 289 kts | 5° |
| 2026-05-01 14:32 | 40.35042 | 49.72157 | 16013 ft | 290 kts | 5° |
| 2026-05-01 14:32 | 40.37037 | 49.72498 | 16008 ft | 290 kts | 5° |
| 2026-05-01 14:33 | 40.39051 | 49.72846 | 16004 ft | 289 kts | 5° |
| 2026-05-01 14:33 | 40.41029 | 49.73188 | 16006 ft | 289 kts | 5° |
| 2026-05-01 14:33 | 40.43048 | 49.73537 | 16009 ft | 290 kts | 5° |
| 2026-05-01 14:33 | 40.45043 | 49.73883 | 16005 ft | 290 kts | 5° |
| 2026-05-01 14:34 | 40.47041 | 49.74230 | 16004 ft | 290 kts | 5° |
| 2026-05-01 14:34 | 40.49043 | 49.74578 | 16009 ft | 290 kts | 5° |
| 2026-05-01 14:34 | 40.51039 | 49.74925 | 16009 ft | 290 kts | 5° |
| 2026-05-01 14:34 | 40.53039 | 49.75272 | 16010 ft | 290 kts | 5° |
| 2026-05-01 14:35 | 40.55047 | 49.75621 | 16007 ft | 290 kts | 5° |
| 2026-05-01 14:35 | 40.57040 | 49.75968 | 16007 ft | 290 kts | 5° |
| 2026-05-01 14:35 | 40.59036 | 49.76317 | 16009 ft | 289 kts | 6° |
| 2026-05-01 14:35 | 40.61014 | 49.76823 | 16004 ft | 290 kts | 13° |
| 2026-05-01 14:36 | 40.62919 | 49.77750 | 15940 ft | 294 kts | 25° |
| 2026-05-01 14:36 | 40.64717 | 49.79062 | 15536 ft | 302 kts | 30° |
| 2026-05-01 14:36 | 40.66528 | 49.80526 | 14884 ft | 311 kts | 31° |
| 2026-05-01 14:36 | 40.68384 | 49.82040 | 14303 ft | 316 kts | 30° |
| 2026-05-01 14:37 | 40.70281 | 49.83501 | 13762 ft | 320 kts | 26° |
| 2026-05-01 14:37 | 40.72343 | 49.84625 | 13189 ft | 323 kts | 13° |
| 2026-05-01 14:37 | 40.74558 | 49.85082 | 12597 ft | 324 kts | 1° |
| 2026-05-01 14:37 | 40.76867 | 49.85158 | 11979 ft | 328 kts | 358° |
| 2026-05-01 14:38 | 40.79126 | 49.85155 | 11507 ft | 327 kts | 358° |
| 2026-05-01 14:38 | 40.81403 | 49.85146 | 11175 ft | 322 kts | 358° |
| 2026-05-01 14:38 | 40.83614 | 49.85144 | 10936 ft | 312 kts | 358° |
| 2026-05-01 14:38 | 40.85751 | 49.85144 | 10771 ft | 302 kts | 358° |
| 2026-05-01 14:39 | 40.87803 | 49.85144 | 10623 ft | 292 kts | 358° |
| 2026-05-01 14:39 | 40.89824 | 49.85144 | 10482 ft | 283 kts | 358° |
| 2026-05-01 14:39 | 40.91761 | 49.85154 | 10314 ft | 274 kts | 0° |
| 2026-05-01 14:39 | 40.93607 | 49.85531 | 10190 ft | 268 kts | 18° |
| 2026-05-01 14:40 | 40.95194 | 49.86737 | 10016 ft | 264 kts | 43° |
| 2026-05-01 14:40 | 40.96352 | 49.88611 | 9662 ft | 264 kts | 60° |
| 2026-05-01 14:40 | 40.97022 | 49.90835 | 9361 ft | 262 kts | 83° |
| 2026-05-01 14:40 | 40.97098 | 49.93220 | 9063 ft | 259 kts | 95° |
| 2026-05-01 14:41 | 40.96776 | 49.95549 | 8721 ft | 254 kts | 116° |
| 2026-05-01 14:41 | 40.95870 | 49.97481 | 8417 ft | 246 kts | 138° |
| 2026-05-01 14:41 | 40.94625 | 49.99025 | 8102 ft | 243 kts | 142° |
| 2026-05-01 14:41 | 40.93375 | 50.00521 | 7800 ft | 242 kts | 141° |
| 2026-05-01 14:42 | 40.92130 | 50.02034 | 7501 ft | 242 kts | 141° |
| 2026-05-01 14:42 | 40.90901 | 50.03527 | 7197 ft | 241 kts | 141° |
| 2026-05-01 14:42 | 40.89658 | 50.05000 | 6891 ft | 239 kts | 146° |
| 2026-05-01 14:42 | 40.88249 | 50.06044 | 6596 ft | 232 kts | 167° |
| 2026-05-01 14:43 | 40.86655 | 50.06262 | 6309 ft | 226 kts | 182° |
| 2026-05-01 14:43 | 40.85104 | 50.06241 | 6016 ft | 225 kts | 181° |
| 2026-05-01 14:43 | 40.83527 | 50.06245 | 5723 ft | 224 kts | 181° |
| 2026-05-01 14:43 | 40.81985 | 50.06249 | 5439 ft | 222 kts | 181° |
| 2026-05-01 14:44 | 40.80431 | 50.06249 | 5141 ft | 221 kts | 181° |
| 2026-05-01 14:44 | 40.77372 | 50.06250 | 4542 ft | 217 kts | 181° |
| 2026-05-01 14:44 | 40.75892 | 50.06250 | 4294 ft | 210 kts | 181° |
| 2026-05-01 14:45 | 40.74452 | 50.06250 | 4065 ft | 205 kts | 181° |
| 2026-05-01 14:45 | 40.71706 | 50.06237 | 3813 ft | 189 kts | 181° |
| 2026-05-01 14:45 | 40.70409 | 50.06206 | 3675 ft | 182 kts | 181° |
| 2026-05-01 14:46 | 40.69160 | 50.06176 | 3509 ft | 175 kts | 181° |
| 2026-05-01 14:46 | 40.66776 | 50.06107 | 3092 ft | 170 kts | 182° |
| 2026-05-01 14:46 | 40.65592 | 50.06050 | 2966 ft | 168 kts | 180° |
| 2026-05-01 14:47 | 40.64421 | 50.06050 | 2969 ft | 169 kts | 179° |
| 2026-05-01 14:47 | 40.63236 | 50.06061 | 2915 ft | 173 kts | 179° |
| 2026-05-01 14:47 | 40.62040 | 50.06078 | 2688 ft | 171 kts | 179° |
| 2026-05-01 14:48 | 40.59741 | 50.06113 | 2267 ft | 150 kts | 178° |
| 2026-05-01 14:48 | 40.58737 | 50.06127 | 2007 ft | 137 kts | 178° |
| 2026-05-01 14:48 | 40.56862 | 50.06157 | 1673 ft | 140 kts | 178° |
| 2026-05-01 14:49 | 40.54901 | 50.06165 | 1265 ft | 139 kts | 178° |
| 2026-05-01 14:49 | 40.52988 | 50.06214 | 874 ft | 138 kts | 178° |
| 2026-05-01 14:50 | 40.51356 | 50.06218 | 584 ft | 138 kts | 178° |
| 2026-05-01 14:50 | 40.49111 | 50.06267 | 176 ft | 137 kts | 177° |
| 2026-05-01 14:51 | 40.48158 | 50.06284 | 14 ft | 132 kts | 178° |
| 2026-05-01 14:51 | 40.47041 | 50.06303 | 0 ft | 35 kts | 179° |
| 2026-05-01 14:52 | 40.46685 | 50.06309 | -3 ft | 20 kts | 179° |
| 2026-05-01 14:52 | 40.46607 | 50.06297 | -3 ft | 9 kts | 212° |
| 2026-05-01 14:52 | 40.46587 | 50.06172 | -3 ft | 7 kts | 268° |
| 2026-05-01 14:53 | 40.46585 | 50.06105 | -3 ft | 9 kts | 270° |
| 2026-05-01 14:53 | 40.46582 | 50.05999 | -3 ft | 11 kts | 253° |
| 2026-05-01 14:53 | 40.46530 | 50.05930 | -3 ft | 9 kts | 235° |
| 2026-05-01 14:54 | 40.46521 | 50.05841 | -3 ft | 12 kts | 267° |
| 2026-05-01 14:54 | 40.46518 | 50.05706 | -3 ft | 17 kts | 268° |
| 2026-05-01 14:54 | 40.46551 | 50.05578 | -5 ft | 17 kts | 324° |
| 2026-05-01 14:54 | 40.46674 | 50.05473 | -6 ft | 23 kts | 330° |
| 2026-05-01 14:55 | 40.46791 | 50.05396 | -8 ft | 13 kts | 341° |
| 2026-05-01 14:55 | 40.46880 | 50.05385 | -9 ft | 12 kts | 358° |
| 2026-05-01 14:55 | 40.46932 | 50.05315 | -10 ft | 11 kts | 272° |
| 2026-05-01 14:55 | 40.46929 | 50.05215 | -10 ft | 10 kts | 268° |
| 2026-05-01 14:56 | 40.46927 | 50.05119 | -10 ft | 10 kts | 268° |
| 2026-05-01 14:56 | 40.46886 | 50.05045 | -10 ft | 11 kts | 196° |
| 2026-05-01 14:56 | 40.46800 | 50.05042 | -9 ft | 10 kts | 187° |
| 2026-05-01 14:56 | 40.46744 | 50.05024 | -8 ft | 6 kts | 177° |
| 2026-05-01 14:57 | 40.46712 | 50.05050 | -7 ft | 4 kts | 143° |
| 2026-05-01 14:57 | 40.46677 | 50.05083 | -7 ft | 1 kts | 144° |
| 2026-05-01 14:57 | 40.46676 | 50.05084 | -7 ft | 0 kts | 144° |